Time;durP1;ratioP1;P1;durP2;ratioP2;P2;SDS_P1;SDS_P2;PMS_P1;PMS_P2;Temp;Humidity;BMP_temperature;BMP_pressure;BME280_temperature;BME280_humidity;BME280_pressure;Samples;Min_cycle;Max_cycle;Signal;HPM_P1;HPM_P2
2022/07/20 00:01:34;;;;;;;15.50;6.82;;;;;;;18.69;59.09;95443.88;5092678;28;20608;-77
2022/07/20 00:04:00;;;;;;;7.28;4.07;;;;;;;18.85;59.20;95460.91;5093899;28;20227;-77
2022/07/20 00:06:25;;;;;;;7.00;3.70;;;;;;;18.82;58.72;95462.19;5094004;28;20234;-77
2022/07/20 00:11:35;;;;;;;8.60;3.67;;;;;;;18.64;58.90;95443.81;5085607;28;20566;-78
2022/07/20 00:14:02;;;;;;;9.25;3.90;;;;;;;18.75;58.91;95460.78;5094116;28;20170;-78
2022/07/20 00:16:30;;;;;;;13.38;4.72;;;;;;;18.74;58.82;95467.16;5093665;28;20208;-78
2022/07/20 00:18:55;;;;;;;11.10;3.92;;;;;;;18.68;58.91;95465.47;5094134;28;20181;-78
2022/07/20 00:21:21;;;;;;;7.10;3.67;;;;;;;18.68;58.82;95460.91;5094155;28;20181;-78
2022/07/20 00:23:47;;;;;;;7.32;3.92;;;;;;;18.64;59.00;95454.47;5093838;28;20189;-78
2022/07/20 00:26:12;;;;;;;9.02;3.78;;;;;;;18.61;58.99;95459.50;5094375;28;20166;-78
2022/07/20 00:28:38;;;;;;;7.32;3.20;;;;;;;18.62;58.70;95455.78;5093446;28;20733;-78
2022/07/20 00:31:04;;;;;;;5.22;3.28;;;;;;;18.61;58.83;95454.16;5093916;28;20205;-78
2022/07/20 00:33:30;;;;;;;10.70;3.47;;;;;;;18.47;59.37;95427.81;5093853;28;20186;-78
2022/07/20 00:35:55;;;;;;;5.15;2.60;;;;;;;18.36;59.32;95419.91;5093323;28;20177;-78
2022/07/20 00:38:21;;;;;;;8.05;3.50;;;;;;;18.46;59.71;95452.06;5093547;28;20662;-78
2022/07/20 00:40:47;;;;;;;7.80;2.92;;;;;;;18.30;59.81;95436.91;5092159;28;20552;-78
2022/07/20 00:43:12;;;;;;;11.15;3.22;;;;;;;18.37;59.77;95458.84;5093320;28;20798;-78
2022/07/20 00:45:38;;;;;;;5.75;3.03;;;;;;;18.17;60.47;95431.88;5093271;28;20252;-78
2022/07/20 00:48:04;;;;;;;6.72;3.15;;;;;;;18.23;59.70;95458.41;5093452;28;20170;-78
2022/07/20 00:50:29;;;;;;;11.35;3.30;;;;;;;18.18;59.49;95460.16;5093169;28;20165;-78
2022/07/20 00:52:55;;;;;;;7.93;3.38;;;;;;;18.13;59.29;95452.09;5093236;28;20174;-78
2022/07/20 00:55:21;;;;;;;5.47;3.28;;;;;;;18.05;59.95;95458.63;5093214;28;20174;-78
2022/07/20 00:57:46;;;;;;;4.88;2.78;;;;;;;18.03;60.13;95460.72;5093175;28;20206;-78
2022/07/20 01:00:13;;;;;;;6.97;3.35;;;;;;;18.04;59.99;95457.03;5091559;28;20273;-78
2022/07/20 01:02:39;;;;;;;9.57;3.38;;;;;;;17.89;59.87;95440.78;5092717;28;20686;-78
2022/07/20 01:05:13;;;;;;;5.85;3.13;;;;;;;17.87;60.08;95450.88;5092864;28;20261;-78
2022/07/20 01:07:43;;;;;;;6.13;4.20;;;;;;;17.84;60.54;95448.69;5092756;28;20169;-78
2022/07/20 01:10:09;;;;;;;12.90;3.78;;;;;;;17.86;60.08;95452.72;5092761;28;20719;-78
2022/07/20 01:12:37;;;;;;;6.30;3.35;;;;;;;17.83;60.49;95449.72;5092810;28;20173;-78
2022/07/20 01:15:04;;;;;;;7.93;3.90;;;;;;;17.69;60.38;95422.63;5092935;28;20186;-78
2022/07/20 01:17:29;;;;;;;4.82;3.03;;;;;;;17.93;60.54;95452.56;5092578;28;20205;-78
2022/07/20 01:19:55;;;;;;;3.65;2.72;;;;;;;17.95;60.71;95458.47;5092508;28;20205;-78
2022/07/20 01:22:20;;;;;;;8.05;3.80;;;;;;;17.97;61.02;95451.88;5092592;28;20178;-78
2022/07/20 01:24:46;;;;;;;8.48;3.20;;;;;;;17.96;60.84;95458.25;5092639;28;20177;-78
2022/07/20 01:27:11;;;;;;;6.05;3.00;;;;;;;17.94;61.01;95457.66;5092790;28;20174;-78
2022/07/20 01:29:36;;;;;;;8.95;3.03;;;;;;;17.87;61.07;95458.88;5092711;28;20178;-78
2022/07/20 01:32:02;;;;;;;4.95;2.72;;;;;;;17.78;61.13;95455.00;5092598;28;20252;-79
2022/07/20 01:34:27;;;;;;;8.15;3.20;;;;;;;17.75;61.53;95450.13;5092961;28;20176;-78
2022/07/20 01:36:52;;;;;;;6.55;2.72;;;;;;;17.73;61.85;95442.38;5092774;28;20189;-78
2022/07/20 01:39:18;;;;;;;5.22;3.15;;;;;;;17.74;61.73;95444.00;5092878;28;20173;-78
2022/07/20 01:41:43;;;;;;;6.40;3.03;;;;;;;17.74;61.97;95444.00;5093044;28;20173;-79
2022/07/20 01:44:09;;;;;;;4.97;2.80;;;;;;;17.74;61.88;95438.66;5092661;28;20186;-78
2022/07/20 01:46:34;;;;;;;6.68;3.00;;;;;;;17.73;61.81;95436.28;5092606;28;20570;-78
2022/07/20 01:49:00;;;;;;;5.35;2.65;;;;;;;17.65;62.09;95445.44;5092767;28;20174;-78
2022/07/20 01:51:25;;;;;;;7.85;3.40;;;;;;;17.60;62.71;95446.13;5092565;28;20536;-78
2022/07/20 01:53:50;;;;;;;8.07;2.78;;;;;;;17.57;62.90;95451.94;5092490;28;20184;-78
2022/07/20 01:56:16;;;;;;;7.50;3.63;;;;;;;17.57;62.94;95445.78;5092550;28;20350;-78
2022/07/20 01:58:41;;;;;;;17.23;7.22;;;;;;;17.56;62.84;95452.97;5092240;28;20272;-78
2022/07/20 02:01:07;;;;;;;19.17;5.28;;;;;;;17.47;62.61;95448.31;5092096;28;20652;-78
2022/07/20 02:03:32;;;;;;;10.38;6.13;;;;;;;17.49;62.93;95462.97;5090780;28;20638;-78
2022/07/20 02:05:57;;;;;;;11.18;4.50;;;;;;;17.46;62.99;95460.00;5092369;28;20230;-78
2022/07/20 02:08:25;;;;;;;5.47;3.00;;;;;;;17.47;62.50;95457.06;5092638;28;20169;-78
2022/07/20 02:10:52;;;;;;;7.65;3.20;;;;;;;17.38;62.56;95457.72;5092169;28;20676;-78
2022/07/20 02:13:18;;;;;;;9.05;3.80;;;;;;;17.38;62.48;95463.84;5092135;28;20562;-78
2022/07/20 02:18:27;;;;;;;5.70;2.92;;;;;;;17.37;62.77;95469.41;5084176;28;20274;-78
2022/07/20 02:20:52;;;;;;;10.00;3.10;;;;;;;17.28;63.12;95469.78;5092346;28;20208;-78
2022/07/20 02:23:18;;;;;;;8.98;3.92;;;;;;;17.24;63.12;95467.81;5091571;28;20253;-78
2022/07/20 02:25:43;;;;;;;7.75;4.22;;;;;;;17.13;63.38;95458.00;5092154;28;20635;-79
2022/07/20 02:28:08;;;;;;;13.00;5.15;;;;;;;17.18;63.60;95468.78;5091936;28;20382;-79
2022/07/20 02:30:35;;;;;;;9.07;4.97;;;;;;;17.15;63.51;95467.38;5091965;28;20181;-78
2022/07/20 02:33:03;;;;;;;17.33;9.35;;;;;;;17.14;63.85;95465.75;5092134;28;20174;-78
2022/07/20 02:35:29;;;;;;;15.85;8.00;;;;;;;16.97;63.91;95438.28;5092242;28;20185;-78
2022/07/20 02:37:54;;;;;;;7.60;3.35;;;;;;;17.12;63.82;95462.56;5090391;28;20213;-79
2022/07/20 02:40:20;;;;;;;18.17;6.85;;;;;;;17.00;64.09;95439.69;5092073;28;20235;-78
2022/07/20 02:42:45;;;;;;;9.82;4.28;;;;;;;17.10;64.10;95471.81;5091871;28;20264;-78
2022/07/20 02:45:11;;;;;;;10.65;4.80;;;;;;;17.06;64.56;95468.00;5091894;28;20258;-78
2022/07/20 02:47:44;;;;;;;17.20;10.02;;;;;;;17.05;64.97;95471.69;5091594;28;20172;-78
2022/07/20 02:50:11;;;;;;;7.85;5.35;;;;;;;17.06;64.73;95473.31;5090226;28;20209;-78
2022/07/20 02:52:37;;;;;;;7.55;3.55;;;;;;;16.98;64.77;95466.50;5090599;28;20575;-78
2022/07/20 02:55:03;;;;;;;16.23;8.35;;;;;;;16.91;65.36;95471.16;5091747;28;20181;-78
2022/07/20 02:57:28;;;;;;;11.63;5.55;;;;;;;16.88;65.33;95477.75;5091781;28;20208;-78
2022/07/20 02:59:53;;;;;;;20.73;11.80;;;;;;;16.90;65.40;95475.66;5091831;28;20173;-78
2022/07/20 03:02:19;;;;;;;17.80;9.25;;;;;;;16.90;65.34;95478.31;5091622;28;20257;-78
2022/07/20 03:04:44;;;;;;;12.88;6.30;;;;;;;16.79;65.26;95460.53;5091748;28;20656;-79
2022/07/20 03:07:09;;;;;;;25.05;12.93;;;;;;;16.92;65.34;95478.91;5091846;28;20166;-78
2022/07/20 03:09:35;;;;;;;12.98;6.50;;;;;;;16.88;64.93;95468.94;5091504;28;20197;-78
2022/07/20 03:12:00;;;;;;;9.32;5.35;;;;;;;16.95;64.97;95481.06;5091397;28;20170;-78
2022/07/20 03:14:26;;;;;;;24.95;5.68;;;;;;;16.98;64.87;95482.47;5091329;28;20656;-78
2022/07/20 03:16:52;;;;;;;8.27;3.28;;;;;;;16.91;64.92;95482.59;5091199;28;20205;-78
2022/07/20 03:19:18;;;;;;;22.73;11.57;;;;;;;16.90;65.01;95482.84;5091299;28;20254;-78
2022/07/20 03:21:43;;;;;;;11.40;5.57;;;;;;;16.73;64.89;95456.16;5091232;28;20189;-78
2022/07/20 03:24:14;;;;;;;13.23;6.28;;;;;;;16.86;65.16;95487.84;5091129;28;20174;-78
2022/07/20 03:26:40;;;;;;;10.70;4.93;;;;;;;16.88;64.93;95490.22;5090944;28;20170;-78
2022/07/20 03:29:05;;;;;;;13.10;3.55;;;;;;;16.88;64.81;95490.22;5090745;28;20225;-77
2022/07/20 03:31:31;;;;;;;12.20;5.15;;;;;;;16.86;65.00;95490.50;5090337;28;20748;-76
2022/07/20 03:33:56;;;;;;;10.00;4.03;;;;;;;16.87;65.12;95499.25;5090304;28;20623;-76
2022/07/20 03:36:21;;;;;;;17.70;8.57;;;;;;;16.90;65.00;95499.59;5092073;28;20197;-76
2022/07/20 03:38:47;;;;;;;9.32;6.70;;;;;;;16.92;64.64;95494.06;5093925;28;20177;-76
2022/07/20 03:41:12;;;;;;;31.35;4.00;;;;;;;16.98;64.09;95504.56;5093747;28;20174;-76
2022/07/20 03:43:38;;;;;;;14.43;3.20;;;;;;;17.05;64.51;95506.28;5093758;28;20174;-76
2022/07/20 03:46:03;;;;;;;6.90;3.75;;;;;;;17.11;64.67;95500.84;5093588;28;20173;-76
2022/07/20 03:48:28;;;;;;;13.00;3.30;;;;;;;17.14;64.55;95496.88;5093990;28;20261;-76
2022/07/20 03:50:54;;;;;;;8.95;3.80;;;;;;;17.27;64.56;95512.59;5093504;28;20915;-76
2022/07/20 03:53:19;;;;;;;11.57;4.68;;;;;;;17.39;64.61;95510.69;5093484;28;20545;-76
2022/07/20 03:55:45;;;;;;;9.32;4.82;;;;;;;17.50;63.67;95509.84;5093162;28;20807;-76
2022/07/20 03:58:10;;;;;;;10.60;3.50;;;;;;;17.60;63.20;95509.22;5092975;28;20197;-76
2022/07/20 04:00:35;;;;;;;4.82;3.58;;;;;;;17.73;62.95;95511.63;5092864;28;20178;-76
2022/07/20 04:03:01;;;;;;;9.18;4.20;;;;;;;17.89;62.60;95510.88;5092991;28;20567;-76
2022/07/20 04:05:27;;;;;;;16.98;4.15;;;;;;;17.99;61.63;95507.53;5093012;28;20181;-76
2022/07/20 04:07:52;;;;;;;12.85;4.15;;;;;;;18.16;61.19;95512.91;5092836;28;20170;-75
2022/07/20 04:10:17;;;;;;;8.00;3.33;;;;;;;18.16;59.97;95511.06;5093213;28;20607;-76
2022/07/20 04:12:43;;;;;;;15.27;4.50;;;;;;;18.35;60.21;95511.59;5092356;28;20293;-77
2022/07/20 04:15:09;;;;;;;10.02;3.30;;;;;;;18.49;59.13;95515.56;5091640;28;20185;-76
2022/07/20 04:17:34;;;;;;;7.43;3.53;;;;;;;18.67;58.92;95512.69;5093137;28;20584;-76
2022/07/20 04:20:00;;;;;;;7.82;3.25;;;;;;;18.85;57.52;95519.59;5093126;28;20264;-76
2022/07/20 04:22:25;;;;;;;9.07;3.95;;;;;;;18.98;56.85;95510.41;5086893;28;20576;-76
2022/07/20 04:24:51;;;;;;;7.90;3.47;;;;;;;18.96;56.72;95478.63;5092768;28;20570;-76
2022/07/20 04:27:16;;;;;;;9.57;4.78;;;;;;;19.32;57.63;95519.94;5091440;28;20201;-76
2022/07/20 04:29:42;;;;;;;5.10;2.40;;;;;;;19.39;57.15;95487.69;5086703;28;20696;-77
2022/07/20 04:32:07;;;;;;;11.82;2.97;;;;;;;19.53;56.86;95488.97;5092619;28;20638;-76
2022/07/20 04:34:33;;;;;;;9.40;3.38;;;;;;;19.93;55.43;95515.28;5092914;28;20174;-76
2022/07/20 04:36:58;;;;;;;6.10;2.90;;;;;;;20.15;54.64;95523.25;5092506;28;20273;-76
2022/07/20 04:39:24;;;;;;;4.80;2.20;;;;;;;20.32;55.57;95521.25;5090579;28;20169;-77
2022/07/20 04:41:49;;;;;;;9.65;3.60;;;;;;;20.45;55.19;95509.34;5092313;28;20169;-76
2022/07/20 04:44:15;;;;;;;4.68;3.10;;;;;;;20.71;53.68;95522.66;5092397;28;20669;-76
2022/07/20 04:46:40;;;;;;;9.90;4.40;;;;;;;20.87;52.56;95507.47;5092057;28;20170;-76
2022/07/20 04:49:07;;;;;;;22.30;5.35;;;;;;;21.02;51.27;95491.50;5092354;28;20658;-77
2022/07/20 04:51:33;;;;;;;6.72;3.30;;;;;;;21.60;50.08;95534.38;5092398;28;20183;-76
2022/07/20 04:53:59;;;;;;;5.97;3.40;;;;;;;21.88;49.90;95533.91;5090704;28;20170;-76
2022/07/20 04:56:24;;;;;;;6.00;2.95;;;;;;;22.12;48.61;95520.84;5091889;28;20204;-76
2022/07/20 04:58:54;;;;;;;6.72;2.60;;;;;;;22.51;47.64;95540.72;5088741;28;20177;-76
2022/07/20 05:01:21;;;;;;;6.22;3.58;;;;;;;22.87;46.21;95538.03;5088297;28;20205;-76
2022/07/20 05:03:46;;;;;;;4.30;2.95;;;;;;;22.94;44.75;95542.06;5082099;28;20304;-76
2022/07/20 05:06:12;;;;;;;4.00;2.60;;;;;;;23.07;44.81;95513.03;5082326;28;20256;-76
2022/07/20 05:08:38;;;;;;;8.48;2.67;;;;;;;23.56;43.25;95530.09;5081981;28;20199;-76
2022/07/20 05:11:03;;;;;;;7.80;2.50;;;;;;;23.93;43.48;95540.41;5086246;28;20192;-77
2022/07/20 05:13:29;;;;;;;3.97;2.42;;;;;;;24.41;44.08;95540.63;5092094;28;20715;-78
2022/07/20 05:15:54;;;;;;;6.55;2.92;;;;;;;24.95;42.50;95542.38;5092120;28;20158;-78
2022/07/20 05:18:20;;;;;;;3.42;2.30;;;;;;;25.46;39.92;95548.81;5091959;28;20185;-77
2022/07/20 05:20:45;;;;;;;9.10;3.38;;;;;;;25.78;39.33;95533.91;5086226;28;20276;-77
2022/07/20 05:23:10;;;;;;;7.03;2.65;;;;;;;26.13;38.28;95544.22;5089838;28;20651;-77
2022/07/20 05:25:39;;;;;;;4.43;2.25;;;;;;;26.48;38.39;95550.22;5091855;28;20182;-77
2022/07/20 05:28:05;;;;;;;6.32;2.55;;;;;;;27.09;37.17;95544.63;5090987;28;20217;-77
2022/07/20 05:30:30;;;;;;;3.63;2.25;;;;;;;27.72;36.90;95552.09;5091562;28;20169;-76
2022/07/20 05:32:56;;;;;;;4.18;2.63;;;;;;;28.24;35.23;95549.94;5091326;28;20204;-76
2022/07/20 05:35:21;;;;;;;8.95;2.58;;;;;;;28.77;34.53;95544.66;5091448;28;20350;-76
2022/07/20 05:37:47;;;;;;;3.85;2.50;;;;;;;29.35;33.92;95544.47;5091237;28;20259;-77
2022/07/20 05:40:13;;;;;;;6.40;2.50;;;;;;;29.66;33.33;95522.78;5090615;28;20174;-77
2022/07/20 05:42:38;;;;;;;3.35;2.42;;;;;;;30.02;31.86;95541.53;5091149;28;20181;-77
2022/07/20 05:45:04;;;;;;;5.22;2.47;;;;;;;30.22;31.70;95538.22;5090934;28;20643;-77
2022/07/20 05:47:30;;;;;;;8.98;3.60;;;;;;;30.39;31.74;95545.59;5090926;28;20256;-77
2022/07/20 05:49:57;;;;;;;11.23;5.72;;;;;;;30.32;31.03;95540.63;5091485;28;20178;-77
2022/07/20 05:52:23;;;;;;;13.85;7.75;;;;;;;30.49;30.42;95534.41;5090645;28;20173;-77
2022/07/20 05:54:48;;;;;;;6.82;4.07;;;;;;;30.52;30.80;95550.09;5089157;28;20184;-77
2022/07/20 05:57:14;;;;;;;11.20;5.95;;;;;;;30.43;30.30;95526.72;5090254;28;20194;-77
2022/07/20 05:59:40;;;;;;;11.05;2.85;;;;;;;30.75;30.18;95531.69;5089641;28;20310;-77
2022/07/20 06:02:06;;;;;;;3.88;2.70;;;;;;;30.56;30.61;95550.25;5089876;28;20185;-77
2022/07/20 06:04:32;;;;;;;10.63;2.22;;;;;;;30.56;31.35;95548.34;5089974;28;20184;-77
2022/07/20 06:06:57;;;;;;;9.77;3.15;;;;;;;30.07;31.28;95546.84;5090434;28;20173;-77
2022/07/20 06:09:22;;;;;;;4.18;2.50;;;;;;;29.80;31.78;95547.06;5090949;28;20666;-77
2022/07/20 06:11:48;;;;;;;8.52;2.50;;;;;;;29.42;32.39;95546.78;5090351;28;20174;-77
2022/07/20 06:14:13;;;;;;;4.57;2.50;;;;;;;29.38;32.13;95549.31;5091038;28;20169;-78
2022/07/20 06:16:39;;;;;;;4.47;2.40;;;;;;;29.05;32.89;95556.16;5091699;28;20211;-79
2022/07/20 06:19:04;;;;;;;6.78;3.28;;;;;;;28.53;33.26;95550.34;5092063;28;20572;-79
2022/07/20 06:21:29;;;;;;;4.43;2.38;;;;;;;28.14;33.64;95557.16;5091501;28;20178;-79
2022/07/20 06:23:55;;;;;;;3.97;2.38;;;;;;;28.29;35.18;95555.22;5091691;28;20177;-79
2022/07/20 06:26:23;;;;;;;13.05;3.28;;;;;;;28.12;34.53;95516.03;5091696;28;20223;-80
2022/07/20 06:28:50;;;;;;;9.35;4.68;;;;;;;28.34;34.31;95553.22;5091763;28;20225;-79
2022/07/20 06:31:15;;;;;;;8.07;3.20;;;;;;;28.19;35.47;95539.22;5092055;28;20185;-79
2022/07/20 06:33:41;;;;;;;6.20;2.78;;;;;;;28.41;34.72;95547.38;5090630;28;20176;-79
2022/07/20 06:36:06;;;;;;;3.13;2.55;;;;;;;28.48;35.54;95545.84;5091486;28;20211;-80
2022/07/20 06:38:34;;;;;;;5.85;2.55;;;;;;;28.61;34.68;95544.19;5091880;28;20169;-79
2022/07/20 06:40:59;;;;;;;9.00;2.58;;;;;;;28.73;35.40;95536.28;5091755;28;20173;-79
2022/07/20 06:43:24;;;;;;;11.88;6.70;;;;;;;28.62;34.27;95540.38;5091894;28;20518;-79
2022/07/20 06:45:50;;;;;;;4.30;2.80;;;;;;;28.97;33.99;95537.91;5091828;28;20661;-79
2022/07/20 06:48:16;;;;;;;9.95;3.22;;;;;;;29.16;33.27;95536.56;5091475;28;20178;-79
2022/07/20 06:50:41;;;;;;;3.88;2.47;;;;;;;29.21;32.76;95535.66;5090244;28;20178;-79
2022/07/20 06:53:07;;;;;;;5.55;2.65;;;;;;;28.60;33.11;95528.22;5091344;28;20166;-79
2022/07/20 06:55:32;;;;;;;6.00;2.78;;;;;;;28.39;32.95;95531.41;5089744;28;20177;-79
2022/07/20 06:57:57;;;;;;;6.55;2.45;;;;;;;28.43;33.53;95535.13;5090951;28;20212;-79
2022/07/20 07:00:23;;;;;;;9.07;2.40;;;;;;;28.59;33.38;95529.34;5091270;28;20166;-79
2022/07/20 07:02:49;;;;;;;3.70;2.30;;;;;;;28.70;34.37;95534.22;5091672;28;20173;-79
2022/07/20 07:05:14;;;;;;;11.55;2.67;;;;;;;28.69;32.76;95505.50;5091488;28;20185;-79
2022/07/20 07:07:40;;;;;;;11.25;2.70;;;;;;;28.86;35.10;95521.09;5091297;28;20166;-79
2022/07/20 07:10:05;;;;;;;4.78;2.38;;;;;;;28.99;32.95;95505.84;5093233;28;20178;-79
2022/07/20 07:12:31;;;;;;;5.50;2.67;;;;;;;28.86;33.04;95527.31;5095014;28;20170;-80
2022/07/20 07:14:56;;;;;;;6.55;2.97;;;;;;;28.68;33.46;95516.66;5095558;28;20580;-79
2022/07/20 07:17:22;;;;;;;5.10;2.42;;;;;;;28.93;34.15;95515.22;5095502;28;20196;-79
2022/07/20 07:19:47;;;;;;;7.43;2.70;;;;;;;29.32;34.10;95515.25;5094937;28;20650;-79
2022/07/20 07:22:13;;;;;;;7.78;2.50;;;;;;;29.84;33.31;95518.94;5095395;28;20207;-79
2022/07/20 07:24:38;;;;;;;6.05;2.60;;;;;;;30.08;32.50;95518.56;5094585;28;20170;-79
2022/07/20 07:27:04;;;;;;;16.20;3.08;;;;;;;30.27;32.37;95518.25;5094861;28;20309;-79
2022/07/20 07:29:29;;;;;;;8.05;3.00;;;;;;;30.66;32.36;95518.09;5093704;28;20217;-79
2022/07/20 07:32:01;;;;;;;7.63;2.88;;;;;;;30.72;31.19;95511.38;5094259;28;20185;-78
2022/07/20 07:34:28;;;;;;;6.85;2.50;;;;;;;30.75;31.61;95518.09;5093634;28;20557;-79
2022/07/20 07:36:53;;;;;;;8.27;2.65;;;;;;;30.65;31.63;95516.50;5086012;28;20209;-79
2022/07/20 07:39:19;;;;;;;8.02;2.08;;;;;;;30.92;31.73;95518.06;5085705;28;20553;-79
2022/07/20 07:41:44;;;;;;;4.65;2.13;;;;;;;31.02;31.21;95512.28;5093211;28;20196;-78
2022/07/20 07:44:09;;;;;;;6.00;2.40;;;;;;;31.13;32.18;95509.25;5093115;28;20666;-78
2022/07/20 07:46:36;;;;;;;8.60;2.45;;;;;;;31.40;31.92;95500.63;5092087;28;20176;-78
2022/07/20 07:49:02;;;;;;;7.68;2.83;;;;;;;31.46;29.10;95491.97;5093696;28;20249;-77
2022/07/20 07:51:28;;;;;;;4.60;2.15;;;;;;;31.67;29.38;95516.53;5094173;28;20534;-78
2022/07/20 07:53:54;;;;;;;6.10;3.10;;;;;;;31.63;29.14;95506.66;5091957;28;20185;-76
2022/07/20 07:56:19;;;;;;;8.00;2.63;;;;;;;31.87;30.34;95515.00;5092187;28;20189;-78
2022/07/20 07:58:44;;;;;;;4.53;2.40;;;;;;;31.73;30.06;95509.00;5093350;28;21485;-77
2022/07/20 08:01:10;;;;;;;3.95;2.70;;;;;;;31.40;28.82;95503.34;5093858;28;20979;-78
2022/07/20 08:03:36;;;;;;;6.28;2.67;;;;;;;30.98;29.76;95488.75;5093641;28;20186;-79
2022/07/20 08:06:04;;;;;;;5.13;3.17;;;;;;;30.39;30.99;95483.88;5092657;28;20174;-79
2022/07/20 08:08:30;;;;;;;12.13;3.25;;;;;;;30.39;31.42;95493.94;5093677;28;20703;-78
2022/07/20 08:10:55;;;;;;;9.27;2.85;;;;;;;30.69;32.20;95501.16;5093488;28;20205;-77
2022/07/20 08:13:21;;;;;;;8.07;3.38;;;;;;;31.22;29.69;95497.19;5093691;28;20177;-78
2022/07/20 08:15:46;;;;;;;5.10;2.58;;;;;;;31.53;30.29;95485.19;5093799;28;20239;-79
2022/07/20 08:18:12;;;;;;;4.90;2.38;;;;;;;31.81;28.09;95489.09;5094217;28;20207;-79
2022/07/20 08:20:37;;;;;;;15.98;2.78;;;;;;;30.93;29.15;95489.75;5093536;28;20181;-79
2022/07/20 08:23:03;;;;;;;4.57;2.45;;;;;;;30.51;31.72;95479.72;5093586;28;20189;-80
2022/07/20 08:25:29;;;;;;;7.07;2.30;;;;;;;31.15;30.55;95475.13;5092095;28;20181;-81
2022/07/20 08:27:54;;;;;;;7.00;2.78;;;;;;;31.92;29.79;95487.53;5092468;28;20177;-79
2022/07/20 08:30:21;;;;;;;11.48;2.88;;;;;;;32.37;28.50;95482.28;5093950;28;20188;-79
2022/07/20 08:32:46;;;;;;;9.27;3.20;;;;;;;32.19;26.67;95487.06;5093613;28;20269;-80
2022/07/20 08:35:11;;;;;;;7.65;2.45;;;;;;;31.88;26.02;95486.63;5087276;28;20269;-79
2022/07/20 08:37:38;;;;;;;3.35;2.13;;;;;;;31.30;27.00;95482.75;5088729;28;20284;-77
2022/07/20 08:40:06;;;;;;;9.43;2.75;;;;;;;31.24;28.13;95483.25;5091728;28;20251;-77
2022/07/20 08:42:32;;;;;;;5.60;2.38;;;;;;;31.41;28.22;95485.88;5091008;28;20178;-78
2022/07/20 08:44:57;;;;;;;4.28;2.42;;;;;;;31.53;28.17;95485.19;5092338;28;20231;-79
2022/07/20 08:47:28;;;;;;;5.65;1.90;;;;;;;30.83;26.16;95481.91;5093072;28;20260;-78
2022/07/20 08:49:53;;;;;;;3.42;1.75;;;;;;;31.04;26.63;95479.31;5092759;28;20166;-78
2022/07/20 08:52:19;;;;;;;2.90;1.85;;;;;;;31.05;27.35;95473.50;5091320;28;20638;-78
2022/07/20 08:54:44;;;;;;;3.85;1.95;;;;;;;31.11;26.81;95477.72;5091584;28;20201;-79
2022/07/20 08:57:15;;;;;;;6.05;2.53;;;;;;;31.30;28.02;95476.50;5092478;28;21081;-78
2022/07/20 08:59:42;;;;;;;2.67;1.75;;;;;;;31.21;26.08;95478.47;5090730;28;20651;-78
2022/07/20 09:02:08;;;;;;;5.18;2.03;;;;;;;30.81;26.01;95456.16;5092227;28;20299;-77
2022/07/20 09:04:54;;;;;;;2.80;1.60;;;;;;;30.75;28.44;95466.41;5092608;28;20197;-78
2022/07/20 09:07:41;;;;;;;2.97;1.70;;;;;;;30.48;26.70;95466.75;5090455;28;20174;-76
2022/07/20 09:10:10;;;;;;;4.18;1.83;;;;;;;30.53;27.37;95459.25;5088489;28;20209;-77
2022/07/20 09:12:53;;;;;;;3.25;1.70;;;;;;;30.63;26.41;95466.28;5092833;28;20186;-79
2022/07/20 09:15:27;;;;;;;3.42;1.60;;;;;;;30.64;26.53;95465.16;5089889;28;20177;-78
2022/07/20 09:18:02;;;;;;;5.75;2.15;;;;;;;30.59;27.10;95462.63;5091182;28;20240;-79
2022/07/20 09:20:29;;;;;;;4.15;1.70;;;;;;;30.36;28.26;95462.75;5092183;28;20204;-77
2022/07/20 09:23:00;;;;;;;3.35;1.60;;;;;;;30.50;28.22;95462.59;5091821;28;20181;-77
2022/07/20 09:25:25;;;;;;;1.85;1.50;;;;;;;30.56;26.90;95445.03;5092121;28;20266;-77
2022/07/20 09:27:51;;;;;;;3.38;1.70;;;;;;;30.52;28.51;95451.44;5091386;28;20177;-77
2022/07/20 09:30:17;;;;;;;6.78;1.80;;;;;;;30.41;27.58;95450.94;5090882;28;20185;-76
2022/07/20 09:32:54;;;;;;;4.68;1.70;;;;;;;30.17;27.29;95456.09;5088976;28;20239;-77
2022/07/20 09:35:22;;;;;;;5.15;2.33;;;;;;;29.98;27.49;95437.38;5090403;28;20686;-76
2022/07/20 09:37:47;;;;;;;4.90;1.80;;;;;;;30.10;29.27;95445.69;5090658;28;20220;-76
2022/07/20 09:40:13;;;;;;;4.45;1.80;;;;;;;30.00;27.64;95441.38;5090397;28;20872;-76
2022/07/20 09:42:41;;;;;;;13.88;2.33;;;;;;;29.77;28.38;95434.44;5088963;28;20194;-76
2022/07/20 09:45:26;;;;;;;4.30;1.92;;;;;;;29.64;28.65;95430.78;5088893;28;20185;-76
2022/07/20 09:48:09;;;;;;;4.97;1.60;;;;;;;29.05;29.43;95431.41;5088416;28;20169;-76
2022/07/20 09:50:38;;;;;;;3.88;1.70;;;;;;;28.95;28.55;95394.50;5088471;28;20173;-76
2022/07/20 09:53:05;;;;;;;7.90;1.95;;;;;;;29.36;29.13;95431.34;5088214;28;20177;-76
2022/07/20 09:55:33;;;;;;;2.65;1.42;;;;;;;29.63;30.71;95436.53;5088175;28;20169;-76
2022/07/20 09:57:59;;;;;;;2.17;1.60;;;;;;;29.58;29.08;95434.75;5089647;28;20240;-76
2022/07/20 10:00:25;;;;;;;5.22;1.65;;;;;;;29.01;29.38;95427.69;5090028;28;20667;-76
2022/07/20 10:02:53;;;;;;;5.05;1.55;;;;;;;28.38;29.55;95407.09;5090105;28;20169;-76
2022/07/20 10:05:20;;;;;;;4.68;1.40;;;;;;;28.43;29.71;95426.75;5090044;28;20177;-76
2022/07/20 10:07:46;;;;;;;2.45;1.23;;;;;;;28.58;30.88;95419.34;5090095;28;20170;-76
2022/07/20 10:10:13;;;;;;;3.60;1.40;;;;;;;28.84;29.96;95404.81;5089784;28;20551;-76
2022/07/20 10:12:38;;;;;;;2.55;1.52;;;;;;;29.04;29.58;95417.03;5089706;28;20193;-76
2022/07/20 10:15:29;;;;;;;8.05;1.45;;;;;;;29.18;29.19;95384.34;5089834;28;20560;-76
2022/07/20 10:17:55;;;;;;;3.40;1.42;;;;;;;29.37;29.09;95370.53;5090006;28;20201;-76
2022/07/20 10:20:32;;;;;;;3.78;1.73;;;;;;;29.59;27.60;95406.47;5089794;28;20203;-76
2022/07/20 10:23:16;;;;;;;2.55;2.00;;;;;;;29.57;27.63;95402.50;5089803;28;20177;-76
2022/07/20 10:25:46;;;;;;;1.50;1.40;;;;;;;29.62;28.89;95383.34;5089891;28;20181;-76
2022/07/20 10:28:27;;;;;;;2.03;1.80;;;;;;;29.94;29.22;95388.31;5089631;28;20706;-76
2022/07/20 10:30:58;;;;;;;1.83;1.73;;;;;;;30.04;28.30;95406.22;5089622;28;20170;-76
2022/07/20 10:33:25;;;;;;;4.63;1.73;;;;;;;29.96;27.82;95388.81;5089982;28;20571;-76
2022/07/20 10:35:52;;;;;;;3.60;1.30;;;;;;;29.99;28.61;95390.09;5089887;28;20181;-76
2022/07/20 10:38:21;;;;;;;2.17;1.50;;;;;;;29.99;27.49;95382.75;5089489;28;20597;-76
2022/07/20 10:41:36;;;;;;;5.93;1.90;;;;;;;29.95;28.49;95376.34;5089700;28;20732;-76
2022/07/20 10:44:19;;;;;;;1.92;1.42;;;;;;;30.02;29.40;95363.06;5083213;28;20188;-76
2022/07/20 10:46:46;;;;;;;2.28;1.42;;;;;;;29.99;28.92;95355.59;5093791;28;20207;-76
2022/07/20 10:49:11;;;;;;;3.40;1.88;;;;;;;29.88;28.56;95361.63;5093695;28;20177;-76
2022/07/20 10:51:37;;;;;;;4.25;2.05;;;;;;;29.68;27.78;95351.41;5094113;28;20177;-76
2022/07/20 10:54:30;;;;;;;3.75;1.40;;;;;;;29.64;28.71;95362.91;5094432;28;20325;-76
2022/07/20 10:56:57;;;;;;;3.78;1.67;;;;;;;29.71;28.59;95342.63;5093829;28;20581;-76
2022/07/20 10:59:22;;;;;;;4.70;1.90;;;;;;;29.67;29.18;95352.50;5093915;28;20178;-76
2022/07/20 11:01:48;;;;;;;3.10;1.67;;;;;;;29.67;27.99;95356.03;5093922;28;20177;-76
2022/07/20 11:04:15;;;;;;;4.60;1.85;;;;;;;29.68;28.63;95345.97;5094158;28;20182;-76
2022/07/20 11:06:41;;;;;;;5.45;1.80;;;;;;;29.78;28.16;95345.66;5094068;28;20288;-76
2022/07/20 11:09:06;;;;;;;6.10;1.77;;;;;;;29.84;28.33;95339.72;5093749;28;20288;-76
2022/07/20 11:11:35;;;;;;;4.65;1.80;;;;;;;29.66;28.05;95350.94;5093710;28;20177;-76
2022/07/20 11:14:03;;;;;;;4.50;1.67;;;;;;;29.42;28.52;95341.34;5093857;28;20220;-76
2022/07/20 11:16:28;;;;;;;6.82;1.65;;;;;;;29.51;27.94;95341.34;5093800;28;20197;-76
2022/07/20 11:18:55;;;;;;;5.25;1.95;;;;;;;29.51;28.78;95349.47;5093931;28;20182;-76
2022/07/20 11:21:32;;;;;;;4.25;1.65;;;;;;;29.44;28.19;95341.81;5093738;28;20174;-76
2022/07/20 11:23:57;;;;;;;3.38;1.50;;;;;;;29.46;28.32;95346.94;5093638;28;20306;-77
2022/07/20 11:26:23;;;;;;;4.00;1.80;;;;;;;29.62;29.29;95337.19;5093398;28;20277;-76
2022/07/20 11:28:58;;;;;;;3.83;1.77;;;;;;;29.79;28.65;95339.91;5093470;28;20217;-76
2022/07/20 11:31:26;;;;;;;2.28;1.60;;;;;;;29.91;28.27;95322.97;5093519;28;20671;-76
2022/07/20 11:33:54;;;;;;;3.63;1.70;;;;;;;29.80;28.17;95316.28;5093505;28;20182;-76
2022/07/20 11:36:23;;;;;;;4.20;2.00;;;;;;;29.46;29.40;95293.47;5091915;28;20201;-76